Portada
METAR-TAF:

METAR-TAF

Aeropuertos :

Aeropuerto de Sion

Sion, Suiza

latitud: 46-13N, longitud: 007-20E, altitud: 482 m

Observación

El informe se hizo hace 23 minutos, a las 15:20 UTC
Viento 15 kt del oeste
Temperatura 14°C
Humedad 38%
Presión 1012 hPa
Visibilidad 10 km o más
sin nubes por debajo de 1500 m y sin presencia de cumulonimbus.

METAR: LSGS 011520Z 26015KT CAVOK 14/M00 Q1012

Hora: 17:43 (15:43 UTC)

Pronóstico

El informe se hizo hace 1 hora y 18 minutos, a las 14:25 UTC
Pronóstico válido del 01 a las 15 UTC al 01 a las 24 UTC
Viento 13 kt del oeste
Visibilidad 10 km o más
sin nubes por debajo de 1500 m y sin presencia de cumulonimbus.
Evolucionando progresivamente
del 01 a las 17 UTC al 01 a las 19 UTC
Viento 3 kt con dirección variable

TAF: LSGS 011425Z 0115/0124 26013KT CAVOK BECMG 0117/0119 VRB03KT

Observaciones y pronósticos meteorológicos de más de 4000 aeropuertos (mensajes METAR y TAF).

Los puntos amarillos y rojos representan las estaciones disponibles.

Ponga el ratón en el punto deseado para ver el nombre de la estación.

Haga clic para ver las observaciones y los pronósticos meteorológicos.

Para cambiar el mapa : haga clic en los botones verdes con una cruz de color negro para hacer un zoom, en el botón verde con un guión para alejar o en las flechas verdes para mapas adyacentes.


METAR-TAF: